Time;durP1;ratioP1;P1;durP2;ratioP2;P2;SDS_P1;SDS_P2;PMS_P1;PMS_P2;Temp;Humidity;BMP_temperature;BMP_pressure;BME280_temperature;BME280_humidity;BME280_pressure;Samples;Min_cycle;Max_cycle;Signal;HPM_P1;HPM_P2
2022/04/12 00:00:52;;;;;;;6.80;3.03;;;;;;;11.32;56.34;99236.91;4815118;29;20026;-89
2022/04/12 00:03:18;;;;;;;3.90;2.70;;;;;;;11.34;56.21;99234.91;4813041;29;20039;-90
2022/04/12 00:05:43;;;;;;;3.33;2.45;;;;;;;11.34;56.42;99234.06;4813812;29;20338;-90
2022/04/12 00:08:08;;;;;;;3.65;2.55;;;;;;;11.34;56.77;99232.22;4813336;29;20050;-90
2022/04/12 00:10:34;;;;;;;5.50;2.83;;;;;;;11.34;56.62;99232.22;4798768;29;20030;-90
2022/04/12 00:13:00;;;;;;;3.15;2.50;;;;;;;11.36;56.38;99232.09;4829508;29;20523;-90
2022/04/12 00:15:26;;;;;;;4.00;2.72;;;;;;;11.36;56.44;99232.09;4814286;29;20121;-90
2022/04/12 00:20:36;;;;;;;4.47;2.65;;;;;;;11.33;56.82;99235.06;4815937;29;20122;-90
2022/04/12 00:23:02;;;;;;;4.60;2.70;;;;;;;11.33;57.42;99235.91;4813846;29;20074;-89
2022/04/12 00:25:28;;;;;;;4.13;2.38;;;;;;;11.32;57.85;99223.53;4797706;29;20050;-90
2022/04/12 00:27:55;;;;;;;3.20;2.38;;;;;;;11.32;58.16;99228.03;4813193;29;20053;-90
2022/04/12 00:30:21;;;;;;;4.22;2.58;;;;;;;11.30;58.59;99230.03;4813177;29;20041;-89
2022/04/12 00:32:50;;;;;;;3.60;2.50;;;;;;;11.31;59.07;99229.03;4812556;29;20026;-90
2022/04/12 00:35:16;;;;;;;3.97;2.55;;;;;;;11.29;59.34;99221.16;4813779;29;20042;-90
2022/04/12 00:37:41;;;;;;;2.80;2.45;;;;;;;11.26;58.87;99221.50;4813012;29;20535;-89
2022/04/12 00:40:07;;;;;;;2.78;2.40;;;;;;;11.25;59.37;99225.16;4828987;29;20147;-89
2022/04/12 00:42:33;;;;;;;2.70;2.47;;;;;;;11.27;59.23;99228.53;4812926;29;20124;-90
2022/04/12 00:44:58;;;;;;;3.13;2.45;;;;;;;11.25;58.99;99214.47;4813696;29;20175;-90
2022/04/12 00:47:24;;;;;;;4.15;2.70;;;;;;;11.24;59.21;99206.59;4812840;29;20125;-90
2022/04/12 00:49:49;;;;;;;3.40;2.65;;;;;;;11.23;59.36;99205.75;4828740;29;20076;-90
2022/04/12 00:52:16;;;;;;;3.40;2.42;;;;;;;11.20;59.12;99206.06;4827734;29;20057;-90
2022/04/12 00:54:42;;;;;;;2.60;2.35;;;;;;;11.20;58.51;99198.06;4821291;29;20045;-90
2022/04/12 00:57:08;;;;;;;2.88;2.38;;;;;;;11.19;57.36;99196.38;4813318;29;20022;-90
2022/04/12 00:59:34;;;;;;;2.75;2.40;;;;;;;11.21;57.68;99193.53;4813129;29;20519;-89
2022/04/12 01:02:06;;;;;;;4.00;2.60;;;;;;;11.18;57.12;99188.50;4813000;29;20170;-89
2022/04/12 01:04:32;;;;;;;3.38;2.45;;;;;;;11.20;57.08;99183.84;4835011;29;20030;-89
2022/04/12 01:06:58;;;;;;;5.47;2.60;;;;;;;11.23;57.08;99181.66;4834221;29;20074;-90
2022/04/12 01:09:27;;;;;;;2.60;2.35;;;;;;;11.22;56.36;99176.47;4811825;29;20114;-90
2022/04/12 01:11:57;;;;;;;2.67;2.22;;;;;;;11.22;56.69;99166.63;4814114;29;20136;-90
2022/04/12 01:14:24;;;;;;;2.45;2.25;;;;;;;11.22;56.75;99177.31;4820644;29;20034;-90
2022/04/12 01:16:50;;;;;;;3.42;2.53;;;;;;;11.21;56.60;99175.66;4812918;29;20034;-90
2022/04/12 01:19:16;;;;;;;3.38;2.60;;;;;;;11.20;56.33;99181.16;4813811;29;20522;-90
2022/04/12 01:21:51;;;;;;;3.08;2.30;;;;;;;11.15;56.22;99184.31;4828829;29;20034;-90
2022/04/12 01:24:16;;;;;;;3.20;2.28;;;;;;;11.18;56.62;99178.66;4813912;29;20425;-90
2022/04/12 01:26:41;;;;;;;4.22;2.40;;;;;;;11.21;56.32;99188.19;4797151;29;20073;-90
2022/04/12 01:29:07;;;;;;;3.60;2.85;;;;;;;11.25;56.49;99194.88;4835447;29;20065;-90
2022/04/12 01:31:32;;;;;;;3.53;2.47;;;;;;;11.25;56.56;99186.84;4828936;29;20133;-90
2022/04/12 01:33:58;;;;;;;3.67;2.50;;;;;;;11.25;57.31;99194.88;4812618;29;20468;-90
2022/04/12 01:36:23;;;;;;;5.22;2.88;;;;;;;11.23;57.20;99192.38;4810888;29;20483;-90
2022/04/12 01:38:48;;;;;;;4.55;2.60;;;;;;;11.24;57.21;99190.53;4813852;29;20026;-90
2022/04/12 01:41:14;;;;;;;2.92;2.63;;;;;;;11.23;57.27;99203.09;4812802;29;20038;-90
2022/04/12 01:43:39;;;;;;;4.10;2.72;;;;;;;11.23;57.97;99197.72;4811558;29;20073;-90
2022/04/12 01:46:04;;;;;;;3.85;2.78;;;;;;;11.21;57.83;99196.22;4811994;29;20033;-89
2022/04/12 01:48:30;;;;;;;3.55;2.58;;;;;;;11.21;58.27;99190.88;4812482;29;20069;-90
2022/04/12 01:50:55;;;;;;;2.80;2.50;;;;;;;11.21;58.58;99197.06;4812804;29;20066;-89
2022/04/12 01:53:20;;;;;;;2.70;2.40;;;;;;;11.19;58.53;99203.56;4812586;29;20026;-90
2022/04/12 01:55:46;;;;;;;5.05;2.60;;;;;;;11.19;58.24;99198.22;4827771;29;20030;-90
2022/04/12 01:58:11;;;;;;;2.63;2.40;;;;;;;11.19;58.68;99190.19;4810728;29;20067;-90
2022/04/12 02:00:36;;;;;;;3.67;2.50;;;;;;;11.19;58.14;99187.50;4811469;29;20079;-90
2022/04/12 02:03:03;;;;;;;3.30;2.53;;;;;;;11.18;58.40;99194.69;4812741;29;20113;-90
2022/04/12 02:05:28;;;;;;;3.55;2.30;;;;;;;11.17;58.55;99193.03;4834904;29;20034;-90
2022/04/12 02:07:54;;;;;;;3.28;2.50;;;;;;;11.20;58.13;99189.19;4811484;29;20062;-90
2022/04/12 02:10:21;;;;;;;3.05;2.47;;;;;;;11.17;58.46;99182.31;4812459;29;20388;-89
2022/04/12 02:12:46;;;;;;;4.07;2.30;;;;;;;11.17;58.32;99179.66;4811694;29;20090;-90
2022/04/12 02:15:12;;;;;;;2.90;2.28;;;;;;;11.17;58.23;99178.81;4812807;29;20070;-90
2022/04/12 02:17:37;;;;;;;3.38;2.30;;;;;;;11.16;58.01;99172.63;4830151;29;20037;-90
2022/04/12 02:20:03;;;;;;;3.85;2.58;;;;;;;11.16;58.46;99167.25;4816520;29;20034;-90
2022/04/12 02:22:28;;;;;;;3.13;2.22;;;;;;;11.16;57.96;99169.94;4815735;29;20044;-90
2022/04/12 02:24:54;;;;;;;2.53;2.00;;;;;;;11.14;58.33;99171.09;4815134;29;20122;-90
2022/04/12 02:27:19;;;;;;;2.92;2.15;;;;;;;11.15;58.54;99183.47;4816410;29;20039;-90
2022/04/12 02:29:44;;;;;;;3.35;2.33;;;;;;;11.12;58.24;99181.97;4815863;29;20098;-90
2022/04/12 02:32:10;;;;;;;4.63;2.60;;;;;;;11.13;57.63;99175.63;4816400;29;20034;-89
2022/04/12 02:34:35;;;;;;;3.53;2.42;;;;;;;11.13;57.67;99172.94;4814506;29;20022;-90
2022/04/12 02:37:00;;;;;;;4.28;2.50;;;;;;;11.14;57.79;99171.09;4815669;29;20037;-90
2022/04/12 02:39:26;;;;;;;4.75;2.90;;;;;;;11.11;57.86;99171.41;4815449;29;20488;-90
2022/04/12 02:41:51;;;;;;;3.17;2.40;;;;;;;11.11;58.41;99174.09;4815850;29;20456;-90
2022/04/12 02:44:17;;;;;;;3.25;2.60;;;;;;;11.10;58.31;99172.41;4815289;29;20039;-89
2022/04/12 02:46:42;;;;;;;3.40;2.50;;;;;;;11.12;58.23;99168.59;4814601;29;20038;-90
2022/04/12 02:49:08;;;;;;;3.67;2.90;;;;;;;11.09;58.05;99163.56;4815177;29;20045;-90
2022/04/12 02:51:33;;;;;;;4.03;2.95;;;;;;;11.09;58.87;99174.25;4814863;29;20038;-89
2022/04/12 02:53:59;;;;;;;4.63;2.67;;;;;;;11.09;59.11;99176.94;4815601;29;20148;-89
2022/04/12 02:56:24;;;;;;;3.55;2.60;;;;;;;11.09;58.74;99178.78;4800315;29;20026;-90
2022/04/12 02:58:50;;;;;;;4.82;2.92;;;;;;;11.07;58.97;99180.78;4815612;29;20080;-90
2022/04/12 03:01:15;;;;;;;3.60;2.70;;;;;;;11.07;59.88;99175.41;4814986;29;20053;-90
2022/04/12 03:03:40;;;;;;;3.97;2.80;;;;;;;11.01;59.51;99164.38;4815135;29;20037;-90
2022/04/12 03:06:06;;;;;;;2.78;2.50;;;;;;;10.99;59.84;99170.88;4815355;29;20042;-90
2022/04/12 03:08:31;;;;;;;2.38;2.17;;;;;;;10.96;59.69;99172.03;4814936;29;20064;-89
2022/04/12 03:10:56;;;;;;;3.47;2.40;;;;;;;10.95;59.88;99173.03;4815498;29;20452;-90
2022/04/12 03:13:22;;;;;;;4.20;2.80;;;;;;;10.87;59.68;99180.16;4799850;29;20037;-90
2022/04/12 03:15:47;;;;;;;4.30;2.60;;;;;;;10.82;60.26;99172.59;4814377;29;20038;-89
2022/04/12 03:18:12;;;;;;;5.10;2.45;;;;;;;10.83;60.95;99181.47;4814749;29;20130;-90
2022/04/12 03:20:37;;;;;;;3.25;2.33;;;;;;;10.83;60.80;99168.09;4814814;29;20388;-90
2022/04/12 03:23:03;;;;;;;2.85;2.60;;;;;;;10.83;60.97;99165.41;4815199;29;20113;-90
2022/04/12 03:25:28;;;;;;;3.50;2.60;;;;;;;10.81;60.56;99160.22;4814172;29;20464;-90
2022/04/12 03:27:54;;;;;;;4.40;2.65;;;;;;;10.76;61.12;99156.34;4813762;29;20102;-90
2022/04/12 03:30:19;;;;;;;4.80;2.90;;;;;;;10.76;61.22;99146.50;4830166;29;20479;-90
2022/04/12 03:32:45;;;;;;;3.40;2.53;;;;;;;10.72;61.48;99137.94;4814227;29;20078;-90
2022/04/12 03:35:10;;;;;;;3.00;2.47;;;;;;;10.69;61.19;99132.94;4815106;29;20479;-89
2022/04/12 03:37:35;;;;;;;2.42;2.17;;;;;;;10.69;60.99;99126.75;4814239;29;20070;-89
2022/04/12 03:40:01;;;;;;;3.45;2.53;;;;;;;10.69;61.18;99135.59;4813748;29;20076;-90
2022/04/12 03:42:26;;;;;;;4.00;2.10;;;;;;;10.70;60.88;99137.28;4815124;29;20039;-90
2022/04/12 03:44:52;;;;;;;2.63;2.30;;;;;;;10.69;61.11;99132.09;4814481;29;20034;-89
2022/04/12 03:47:17;;;;;;;6.57;3.03;;;;;;;10.62;61.09;99139.06;4813374;29;20423;-90
2022/04/12 03:49:43;;;;;;;3.10;2.53;;;;;;;10.62;61.23;99141.75;4814435;29;20441;-90
2022/04/12 03:52:09;;;;;;;3.53;2.45;;;;;;;10.56;61.42;99140.53;4799409;29;20018;-90
2022/04/12 03:54:35;;;;;;;3.15;2.60;;;;;;;10.58;61.44;99140.38;4799794;29;20109;-89
2022/04/12 03:57:00;;;;;;;2.63;2.25;;;;;;;10.56;61.56;99137.03;4814984;29;20113;-89
2022/04/12 03:59:25;;;;;;;3.40;2.60;;;;;;;10.53;61.77;99132.84;4813876;29;20343;-90
2022/04/12 04:01:51;;;;;;;2.70;2.47;;;;;;;10.52;61.91;99133.00;4815111;29;20469;-90
2022/04/12 04:04:17;;;;;;;2.88;2.30;;;;;;;10.50;61.86;99138.50;4814373;29;20078;-90
2022/04/12 04:06:42;;;;;;;3.42;2.70;;;;;;;10.51;62.12;99142.84;4813046;29;20054;-90
2022/04/12 04:09:07;;;;;;;3.13;2.80;;;;;;;10.46;61.96;99138.97;4814482;29;20033;-89
2022/04/12 04:11:33;;;;;;;4.35;2.45;;;;;;;10.43;61.83;99133.94;4815080;29;20042;-89
2022/04/12 04:14:03;;;;;;;3.95;2.50;;;;;;;10.33;61.72;99140.22;4828124;29;20034;-89
2022/04/12 04:16:28;;;;;;;4.60;2.67;;;;;;;10.28;62.26;99145.19;4812973;29;20441;-90
2022/04/12 04:18:53;;;;;;;3.15;2.50;;;;;;;10.31;62.39;99144.88;4814579;29;20113;-90
2022/04/12 04:21:19;;;;;;;3.70;2.58;;;;;;;10.31;62.30;99144.88;4813465;29;20045;-90
2022/04/12 04:23:45;;;;;;;4.45;2.58;;;;;;;10.32;62.50;99145.72;4821423;29;20109;-90
2022/04/12 04:26:10;;;;;;;3.67;2.60;;;;;;;10.28;62.86;99139.84;4797699;29;20464;-90
2022/04/12 04:28:36;;;;;;;3.92;2.55;;;;;;;10.19;62.40;99135.41;4813358;29;20454;-90
2022/04/12 04:31:01;;;;;;;3.90;2.63;;;;;;;10.06;62.64;99138.47;4814582;29;20065;-90
2022/04/12 04:33:27;;;;;;;4.78;2.97;;;;;;;10.15;63.66;99135.88;4814054;29;20029;-89
2022/04/12 04:35:53;;;;;;;4.70;2.63;;;;;;;10.20;62.78;99139.78;4814450;29;20105;-90
2022/04/12 04:38:18;;;;;;;3.22;2.63;;;;;;;10.19;62.95;99130.06;4812549;29;20034;-90
2022/04/12 04:40:44;;;;;;;3.55;2.80;;;;;;;10.22;62.74;99128.94;4814342;29;20061;-89
2022/04/12 04:43:09;;;;;;;5.40;2.60;;;;;;;10.14;63.18;99123.50;4813616;29;20113;-90
2022/04/12 04:45:35;;;;;;;3.50;3.00;;;;;;;10.17;63.19;99129.38;4813025;29;20185;-90
2022/04/12 04:48:03;;;;;;;4.20;2.72;;;;;;;10.14;63.47;99128.84;4814364;29;20037;-89
2022/04/12 04:50:30;;;;;;;4.07;2.70;;;;;;;10.17;63.42;99131.22;4812527;29;20447;-89
2022/04/12 04:52:57;;;;;;;4.72;3.10;;;;;;;10.18;63.21;99130.22;4836506;29;20022;-90
2022/04/12 04:55:23;;;;;;;5.65;2.90;;;;;;;10.20;63.53;99122.88;4813754;29;20503;-89
2022/04/12 04:57:48;;;;;;;4.30;2.80;;;;;;;10.18;63.24;99112.34;4797262;29;20113;-89
2022/04/12 05:00:16;;;;;;;5.70;2.95;;;;;;;10.15;63.14;99125.19;4830048;29;20369;-90
2022/04/12 05:02:46;;;;;;;10.93;7.45;;;;;;;10.17;63.34;99125.88;4805466;29;20027;-90
2022/04/12 05:05:12;;;;;;;6.45;4.90;;;;;;;10.17;63.47;99124.03;4805518;29;20308;-90
2022/04/12 05:07:38;;;;;;;5.15;3.58;;;;;;;10.19;63.11;99126.53;4796921;29;20086;-89
2022/04/12 05:10:05;;;;;;;5.75;3.10;;;;;;;10.19;63.25;99134.56;4812675;29;20258;-89
2022/04/12 05:12:30;;;;;;;4.63;2.75;;;;;;;10.17;63.40;99149.91;4814023;29;20544;-89
2022/04/12 05:14:55;;;;;;;4.30;2.70;;;;;;;10.00;63.34;99159.63;4812157;29;20130;-89
2022/04/12 05:17:25;;;;;;;4.47;2.67;;;;;;;9.85;63.63;99166.47;4812060;29;20041;-90
2022/04/12 05:19:52;;;;;;;3.03;2.47;;;;;;;9.91;63.27;99166.72;4813494;29;20468;-90
2022/04/12 05:22:17;;;;;;;3.50;2.60;;;;;;;9.90;63.34;99157.03;4812287;29;20105;-90
2022/04/12 05:24:43;;;;;;;4.47;2.40;;;;;;;9.95;63.20;99167.28;4812988;29;20121;-90
2022/04/12 05:27:08;;;;;;;3.85;2.65;;;;;;;9.97;63.42;99160.78;4812653;29;20046;-90
2022/04/12 05:29:33;;;;;;;6.53;2.90;;;;;;;9.98;63.49;99170.47;4812418;29;20042;-90
2022/04/12 05:31:58;;;;;;;5.45;2.65;;;;;;;9.93;63.32;99164.75;4813401;29;20027;-90
2022/04/12 05:34:24;;;;;;;6.07;3.00;;;;;;;9.97;63.80;99163.44;4812421;29;20047;-90
2022/04/12 05:36:49;;;;;;;3.33;2.90;;;;;;;9.98;64.08;99164.28;4812468;29;20034;-89
2022/04/12 05:39:14;;;;;;;4.90;2.60;;;;;;;10.02;64.19;99163.00;4812676;29;20066;-89
2022/04/12 05:41:40;;;;;;;6.43;3.15;;;;;;;10.03;63.86;99159.31;4812240;29;20044;-89
2022/04/12 05:44:06;;;;;;;3.47;2.53;;;;;;;10.04;63.63;99161.84;4812882;29;20364;-89
2022/04/12 05:46:31;;;;;;;5.43;2.80;;;;;;;10.08;64.16;99151.69;4812754;29;20033;-89
2022/04/12 05:48:56;;;;;;;5.45;2.85;;;;;;;10.10;64.13;99161.22;4813433;29;20049;-88
2022/04/12 05:51:21;;;;;;;4.55;2.75;;;;;;;10.14;64.29;99156.41;4811910;29;20041;-90
2022/04/12 05:53:47;;;;;;;5.80;3.17;;;;;;;10.18;64.40;99159.59;4813004;29;20103;-90
2022/04/12 05:56:12;;;;;;;4.18;2.90;;;;;;;10.18;64.88;99172.97;4812072;29;20038;-89
2022/04/12 05:58:40;;;;;;;7.25;3.17;;;;;;;10.18;64.76;99172.97;4812052;29;20217;-90
2022/04/12 06:01:06;;;;;;;3.70;2.73;;;;;;;10.15;64.75;99174.13;4827135;29;20122;-90
2022/04/12 06:03:31;;;;;;;3.55;2.78;;;;;;;10.18;65.35;99179.16;4797008;29;20124;-90
2022/04/12 06:05:56;;;;;;;3.80;2.40;;;;;;;10.21;65.01;99172.69;4834545;29;20449;-90
2022/04/12 06:08:22;;;;;;;4.03;2.72;;;;;;;10.22;65.65;99174.38;4810889;29;20472;-89
2022/04/12 06:10:47;;;;;;;3.63;2.53;;;;;;;10.24;65.39;99180.38;4819945;29;20034;-89
2022/04/12 06:13:12;;;;;;;4.35;2.92;;;;;;;10.25;65.77;99184.75;4819969;29;20029;-89
2022/04/12 06:15:38;;;;;;;6.10;2.97;;;;;;;10.26;65.60;99178.41;4812420;29;20034;-89
2022/04/12 06:18:03;;;;;;;7.35;2.47;;;;;;;10.23;65.86;99182.22;4811470;29;20026;-89
2022/04/12 06:20:28;;;;;;;2.80;2.15;;;;;;;10.23;66.06;99186.72;4812584;29;20033;-90
2022/04/12 06:22:54;;;;;;;6.85;2.40;;;;;;;10.24;66.06;99178.56;4812503;29;20057;-89
2022/04/12 06:25:20;;;;;;;4.43;2.63;;;;;;;10.24;66.80;99175.03;4813619;29;20472;-90
2022/04/12 06:27:50;;;;;;;6.32;2.75;;;;;;;10.27;66.32;99180.91;4796739;29;20052;-89
2022/04/12 06:30:17;;;;;;;4.13;2.53;;;;;;;10.31;65.87;99184.13;4797557;29;20082;-90
2022/04/12 06:32:43;;;;;;;3.13;2.28;;;;;;;10.31;65.84;99187.63;4811818;29;20099;-89
2022/04/12 06:35:10;;;;;;;4.20;2.50;;;;;;;10.31;65.71;99187.63;4804838;29;20068;-89
2022/04/12 06:37:36;;;;;;;5.32;2.42;;;;;;;10.33;66.03;99182.13;4819794;29;20037;-90
2022/04/12 06:40:02;;;;;;;4.93;2.50;;;;;;;10.35;66.06;99174.78;4811501;29;20076;-89
2022/04/12 06:42:28;;;;;;;4.32;2.63;;;;;;;10.40;66.01;99183.19;4835249;29;20122;-89
2022/04/12 06:44:53;;;;;;;3.30;2.60;;;;;;;10.45;66.20;99186.25;4829039;29;20109;-89
2022/04/12 06:47:19;;;;;;;3.70;2.70;;;;;;;10.49;65.96;99184.94;4811539;29;20380;-89
2022/04/12 06:49:51;;;;;;;4.85;2.55;;;;;;;10.52;66.07;99183.78;4811902;29;20034;-90
2022/04/12 06:52:19;;;;;;;3.88;2.17;;;;;;;10.55;65.89;99183.47;4834357;29;20030;-90
2022/04/12 06:54:45;;;;;;;3.25;2.40;;;;;;;10.60;65.63;99184.69;4812437;29;20446;-90
2022/04/12 06:57:11;;;;;;;4.07;2.10;;;;;;;10.67;65.72;99172.34;4797018;29;20129;-90
2022/04/12 06:59:36;;;;;;;3.97;2.10;;;;;;;10.69;65.87;99177.53;4812353;29;20048;-89
2022/04/12 07:02:02;;;;;;;5.07;2.30;;;;;;;10.72;65.94;99175.38;4813239;29;20037;-90
2022/04/12 07:04:28;;;;;;;4.53;2.13;;;;;;;10.76;65.63;99175.06;4815394;29;20414;-89
2022/04/12 07:06:53;;;;;;;5.03;2.20;;;;;;;10.79;65.87;99175.59;4813837;29;20144;-90
2022/04/12 07:09:21;;;;;;;4.88;2.05;;;;;;;10.84;66.16;99177.78;4814102;29;20411;-90
2022/04/12 07:11:47;;;;;;;2.70;1.88;;;;;;;10.89;66.18;99167.47;4814673;29;20094;-89
2022/04/12 07:14:12;;;;;;;3.25;1.80;;;;;;;10.95;66.39;99164.16;4816060;29;20045;-89
2022/04/12 07:16:38;;;;;;;3.15;1.90;;;;;;;11.01;66.05;99161.69;4814781;29;20025;-89
2022/04/12 07:19:03;;;;;;;5.60;2.40;;;;;;;11.04;66.05;99156.00;4815633;29;20030;-89
2022/04/12 07:21:30;;;;;;;4.15;2.13;;;;;;;11.06;66.24;99161.19;4831276;29;20065;-89
2022/04/12 07:23:56;;;;;;;4.13;2.30;;;;;;;11.11;65.91;99160.72;4831813;29;20054;-89
2022/04/12 07:26:21;;;;;;;6.28;2.00;;;;;;;11.12;65.75;99159.72;4800014;29;20030;-89
2022/04/12 07:28:47;;;;;;;3.10;1.83;;;;;;;11.14;65.87;99157.72;4815199;29;20103;-91
2022/04/12 07:31:12;;;;;;;3.03;1.92;;;;;;;11.14;65.58;99160.41;4814803;29;20053;-91
2022/04/12 07:33:37;;;;;;;3.85;1.70;;;;;;;11.16;65.88;99159.22;4814651;29;20034;-91
2022/04/12 07:36:04;;;;;;;3.58;1.80;;;;;;;11.16;65.71;99153.03;4815145;29;20085;-91
2022/04/12 07:38:29;;;;;;;4.90;1.77;;;;;;;11.17;66.50;99157.41;4822289;29;20099;-91
2022/04/12 07:40:54;;;;;;;3.10;1.58;;;;;;;11.25;66.61;99157.41;4814988;29;20034;-91
2022/04/12 07:43:20;;;;;;;3.13;1.50;;;;;;;11.28;66.27;99152.59;4814634;29;20030;-91
2022/04/12 07:45:45;;;;;;;2.63;1.45;;;;;;;11.31;66.36;99148.75;4814429;29;20472;-91
2022/04/12 07:48:12;;;;;;;2.47;1.58;;;;;;;11.34;66.61;99137.72;4829797;29;20045;-91
2022/04/12 07:50:38;;;;;;;1.42;1.33;;;;;;;11.37;66.90;99139.25;4814805;29;20096;-91
2022/04/12 07:53:03;;;;;;;2.00;1.40;;;;;;;11.38;66.73;99147.13;4814601;29;20452;-91
2022/04/12 07:55:29;;;;;;;2.72;1.40;;;;;;;11.40;67.04;99153.16;4814328;29;20030;-91
2022/04/12 07:57:54;;;;;;;3.30;1.90;;;;;;;11.44;67.33;99156.34;4813515;29;20533;-91
2022/04/12 08:00:19;;;;;;;2.70;1.60;;;;;;;11.44;66.99;99157.16;4799068;29;20033;-92
2022/04/12 08:02:45;;;;;;;1.48;1.30;;;;;;;11.47;67.54;99158.69;4813415;29;20088;-91
2022/04/12 08:05:10;;;;;;;2.00;1.30;;;;;;;11.49;67.79;99152.16;4814189;29;20031;-91
2022/04/12 08:07:35;;;;;;;1.95;1.40;;;;;;;11.51;67.88;99154.69;4827377;29;20053;-91
2022/04/12 08:10:01;;;;;;;2.38;1.20;;;;;;;11.52;68.07;99151.84;4815283;29;20057;-91
2022/04/12 08:12:26;;;;;;;2.05;1.40;;;;;;;11.55;67.68;99150.66;4829057;29;20048;-91
2022/04/12 08:14:51;;;;;;;1.65;1.27;;;;;;;11.58;67.82;99155.69;4813143;29;20030;-91
2022/04/12 08:17:17;;;;;;;3.10;1.30;;;;;;;11.62;66.74;99165.91;4814001;29;20086;-91
2022/04/12 08:19:42;;;;;;;2.47;1.33;;;;;;;11.68;67.60;99156.38;4814621;29;20057;-91
2022/04/12 08:22:09;;;;;;;3.97;1.52;;;;;;;11.71;67.90;99164.09;4813882;29;20030;-91
2022/04/12 08:24:36;;;;;;;1.67;1.10;;;;;;;11.73;68.08;99159.41;4813970;29;20118;-91
2022/04/12 08:27:03;;;;;;;2.15;0.93;;;;;;;11.75;68.41;99160.06;4797391;29;20036;-91
2022/04/12 08:29:28;;;;;;;2.60;1.10;;;;;;;11.76;67.73;99164.44;4812685;29;20065;-91
2022/04/12 08:31:53;;;;;;;0.98;0.82;;;;;;;11.79;67.18;99166.81;4812752;29;20034;-92
2022/04/12 08:34:20;;;;;;;1.95;1.05;;;;;;;11.80;66.24;99159.59;4814257;29;20098;-91
2022/04/12 08:36:45;;;;;;;2.28;1.00;;;;;;;11.82;66.65;99155.75;4812529;29;20030;-91
2022/04/12 08:39:13;;;;;;;2.15;0.85;;;;;;;11.88;66.56;99155.13;4836268;29;20479;-91
2022/04/12 08:41:40;;;;;;;1.40;1.00;;;;;;;11.90;66.42;99146.91;4814933;29;20419;-92
2022/04/12 08:44:07;;;;;;;2.00;1.13;;;;;;;11.92;66.68;99150.25;4836964;29;21065;-91
2022/04/12 08:46:33;;;;;;;2.35;1.02;;;;;;;11.92;66.95;99148.41;4820392;29;20034;-91
2022/04/12 08:48:58;;;;;;;3.10;1.02;;;;;;;11.96;66.08;99151.59;4813656;29;20460;-91
2022/04/12 08:51:27;;;;;;;2.35;1.05;;;;;;;11.95;65.28;99145.41;4812457;29;20054;-91
2022/04/12 08:53:54;;;;;;;3.50;0.90;;;;;;;11.99;65.14;99148.59;4813472;29;20045;-91
2022/04/12 08:56:20;;;;;;;2.03;0.90;;;;;;;12.08;63.59;99144.06;4814634;29;20042;-91
2022/04/12 08:58:45;;;;;;;2.92;0.82;;;;;;;12.04;64.50;99140.06;4814280;29;20030;-91
2022/04/12 09:01:12;;;;;;;2.45;1.00;;;;;;;12.05;65.53;99139.03;4813405;29;20049;-91
2022/04/12 09:03:37;;;;;;;3.40;1.10;;;;;;;12.07;65.57;99142.41;4812641;29;20044;-91
2022/04/12 09:06:02;;;;;;;1.83;0.88;;;;;;;12.07;65.00;99143.22;4813343;29;20030;-91
2022/04/12 09:08:30;;;;;;;1.67;0.73;;;;;;;12.06;64.59;99146.91;4811970;29;20369;-91
2022/04/12 09:11:06;;;;;;;3.03;1.27;;;;;;;12.06;64.84;99138.03;4836388;29;20049;-91
2022/04/12 09:13:32;;;;;;;1.50;0.80;;;;;;;12.11;65.04;99141.06;4820883;29;20504;-91
2022/04/12 09:15:58;;;;;;;1.52;1.05;;;;;;;12.11;65.17;99139.22;4812906;29;20038;-91
2022/04/12 09:18:35;;;;;;;1.95;0.98;;;;;;;12.12;65.24;99132.84;4834635;29;20109;-91
2022/04/12 09:21:20;;;;;;;3.42;0.80;;;;;;;12.15;65.30;99131.66;4797176;29;20186;-91
2022/04/12 09:23:51;;;;;;;2.88;1.05;;;;;;;12.23;65.49;99119.09;4805317;29;20385;-91
2022/04/12 09:26:24;;;;;;;2.92;1.15;;;;;;;12.22;64.20;99119.25;4812402;29;20026;-91
2022/04/12 09:28:55;;;;;;;1.70;0.90;;;;;;;12.23;65.06;99126.28;4796130;29;20045;-92
2022/04/12 09:31:20;;;;;;;1.10;0.70;;;;;;;12.20;64.55;99122.13;4812805;29;20380;-91
2022/04/12 09:33:47;;;;;;;1.42;0.73;;;;;;;12.23;64.96;99121.78;4812606;29;20042;-91
2022/04/12 09:36:13;;;;;;;1.98;1.00;;;;;;;12.30;65.05;99116.59;4813919;29;20040;-91
2022/04/12 09:38:41;;;;;;;1.63;0.77;;;;;;;12.30;64.42;99121.97;4811792;29;20038;-91
2022/04/12 09:41:12;;;;;;;3.75;0.95;;;;;;;12.36;62.66;99123.97;4797579;29;20472;-92
2022/04/12 09:44:07;;;;;;;2.30;0.90;;;;;;;12.35;63.66;99122.28;4811871;29;20117;-91
2022/04/12 09:46:33;;;;;;;1.67;0.80;;;;;;;12.37;63.76;99119.44;4820984;29;20076;-92
2022/04/12 09:49:00;;;;;;;2.47;1.10;;;;;;;12.36;64.12;99117.75;4811977;29;20476;-91
2022/04/12 09:51:25;;;;;;;2.78;1.25;;;;;;;12.37;63.39;99119.44;4813844;29;20034;-91
2022/04/12 09:53:53;;;;;;;2.38;1.00;;;;;;;12.38;63.05;99116.59;4812923;29;20052;-91
2022/04/12 09:56:23;;;;;;;2.83;1.05;;;;;;;12.41;64.78;99118.94;4835206;29;20034;-92
2022/04/12 09:58:53;;;;;;;1.88;1.00;;;;;;;12.43;64.50;99114.22;4812369;29;20052;-92
2022/04/12 10:01:19;;;;;;;2.15;1.00;;;;;;;12.50;64.07;99114.38;4797233;29;20034;-91
2022/04/12 10:03:56;;;;;;;2.72;1.10;;;;;;;12.47;63.74;99102.16;4813747;29;20030;-91
2022/04/12 10:06:26;;;;;;;2.08;1.00;;;;;;;12.54;62.83;99102.28;4797233;29;20030;-91
2022/04/12 10:08:54;;;;;;;1.70;1.05;;;;;;;12.53;63.30;99098.78;4794317;29;20046;-92
2022/04/12 10:11:20;;;;;;;1.90;1.08;;;;;;;12.56;63.27;99097.59;4816929;29;20034;-92
2022/04/12 10:13:46;;;;;;;2.03;1.00;;;;;;;12.56;63.47;99100.28;4793393;29;20030;-91
2022/04/12 10:16:15;;;;;;;2.53;0.98;;;;;;;12.56;64.37;99100.28;4794536;29;20026;-91
2022/04/12 10:18:40;;;;;;;2.10;1.20;;;;;;;12.57;64.10;99096.59;4815805;29;20027;-92
2022/04/12 10:21:06;;;;;;;2.10;1.15;;;;;;;12.59;64.18;99092.72;4794885;29;20326;-90
2022/04/12 10:23:32;;;;;;;1.83;1.08;;;;;;;12.60;64.57;99098.94;4793887;29;20121;-92
2022/04/12 10:25:58;;;;;;;1.98;1.10;;;;;;;12.63;63.56;99095.06;4794507;29;20118;-91
2022/04/12 10:28:25;;;;;;;2.00;1.08;;;;;;;12.65;64.21;99083.16;4792382;29;20109;-91
2022/04/12 10:30:51;;;;;;;1.65;1.10;;;;;;;12.66;63.52;99090.19;4816867;29;20045;-92
2022/04/12 10:33:27;;;;;;;1.15;0.90;;;;;;;12.71;64.12;99085.13;4793894;29;20373;-92
2022/04/12 10:35:54;;;;;;;2.15;0.93;;;;;;;12.70;64.46;99078.09;4794436;29;20046;-91
2022/04/12 10:38:22;;;;;;;1.10;1.00;;;;;;;12.72;63.84;99076.09;4797304;29;20030;-92
2022/04/12 10:40:53;;;;;;;1.80;0.95;;;;;;;12.81;63.64;99079.59;4797139;29;20034;-91
2022/04/12 10:43:29;;;;;;;1.63;0.77;;;;;;;12.86;62.93;99078.06;4805034;29;20637;-92
2022/04/12 10:45:56;;;;;;;3.60;1.10;;;;;;;12.90;63.21;99081.22;4819561;29;20524;-92
2022/04/12 10:48:24;;;;;;;2.47;1.35;;;;;;;12.93;63.51;99072.84;4796696;29;20104;-91
2022/04/12 10:50:52;;;;;;;2.00;0.90;;;;;;;12.92;62.97;99074.69;4784060;29;20087;-92
2022/04/12 10:53:36;;;;;;;2.50;0.80;;;;;;;12.90;63.21;99068.66;4820306;29;20066;-91
2022/04/12 10:56:03;;;;;;;3.63;0.90;;;;;;;12.91;63.74;99067.63;4798829;29;20304;-92
2022/04/12 10:58:30;;;;;;;0.88;0.75;;;;;;;12.90;64.02;99063.28;4797988;29;20368;-92
2022/04/12 11:00:55;;;;;;;1.45;0.90;;;;;;;13.01;62.84;99070.09;4796276;29;20030;-91
2022/04/12 11:03:45;;;;;;;2.60;1.10;;;;;;;13.00;63.16;99067.59;4797117;29;20034;-92
2022/04/12 11:06:33;;;;;;;1.85;1.00;;;;;;;12.99;63.53;99074.81;4797448;29;20030;-91
2022/04/12 11:09:15;;;;;;;1.15;1.00;;;;;;;13.03;61.84;99067.25;4789169;29;20131;-92
2022/04/12 11:11:42;;;;;;;3.67;1.10;;;;;;;13.08;62.76;99059.50;4789722;29;20038;-92
2022/04/12 11:14:22;;;;;;;1.50;0.80;;;;;;;13.09;62.55;99061.16;4804593;29;20579;-91
2022/04/12 11:16:50;;;;;;;1.80;1.10;;;;;;;13.13;61.89;99059.81;4796788;29;20080;-92
2022/04/12 11:19:22;;;;;;;1.48;1.17;;;;;;;13.16;62.59;99064.81;4789575;29;20476;-92
2022/04/12 11:21:51;;;;;;;1.85;1.00;;;;;;;13.18;62.67;99063.66;4796502;29;20461;-92
2022/04/12 11:24:17;;;;;;;3.35;1.25;;;;;;;13.20;62.19;99064.31;4797230;29;20381;-92
2022/04/12 11:26:48;;;;;;;2.45;0.98;;;;;;;13.26;62.15;99070.84;4803190;29;20448;-92
2022/04/12 11:29:17;;;;;;;2.08;1.10;;;;;;;13.27;62.51;99074.38;4804327;29;20520;-92
2022/04/12 11:31:45;;;;;;;2.72;0.98;;;;;;;13.28;62.53;99071.53;4781119;29;20038;-92
2022/04/12 11:34:11;;;;;;;1.70;1.00;;;;;;;13.38;61.19;99061.38;4781804;29;20445;-92